Independence, MO

9:09 AM CST on February 10, 2016 (GMT -0600)
APRSWXNET | | Change Station
CLOSE
Current Station
Personal Weather Station
Location: Sugar Creek, MO
Elevation: 938 ft
Nearby Weather Stations

Elev 938 ft 39.11 °N, 94.38 °W | Updated 51 minutes ago

Overcast
Overcast
26 °F
Feels Like 26 °F
N
0
Wind Variable Wind from North
Gusts 0.0 mph

Today
High -- | Low -- °F
--% Chance of Precip.
Yesterday
High -- | Low -- °F
Precip. -- in
Pressure 30.15 in
Visibility 10.0 miles
Clouds Overcast 10000 ft
Windchill 26 °F
Dew Point 17 °F
Humidity 69%
Rainfall in
Snow Depth Not available.
7:15 AM 5:48 PM
Waxing Crescent, 6% visible
METAR KMKC 101454Z 20011KT 10SM OVC100 M01/M11 A3012 RMK AO2 SLP209 T10061106 56020
Pressure 30.15 in
Visibility 10.0 miles
Clouds Overcast 10000 ft
Windchill 26 °F
Dew Point 17 °F
Humidity 69%
Rainfall in
Snow Depth Not available.
7:15 AM 5:48 PM
Waxing Crescent, 6% visible
METAR KMKC 101454Z 20011KT 10SM OVC100 M01/M11 A3012 RMK AO2 SLP209 T10061106 56020

10-Day Weather Forecast

Almanac

Astronomy

Feb. 10, 2016 Rise Set
Actual Time
Civil Twilight
Nautical Twilight
Astronomical Twilight
Moon
Length of Visible Light
Length of Day
Tomorrow will be .
, % of the Moon is Illuminated

Today's Extremes

State Highs State Lows

Community

WunderPhotos

Upload Photos

1,891,856 photos uploaded!

WunderBlog® & News

Nearby

Air Quality

  Air Quality AQ Index Pollutant
Not available.

Snow Depth

Station Depth Elevation

Earthquake Activity

City Distance Mag. Time & Date
Minimum magnitude displayed is 2.5.

Coastal Water Temperatures

Place Temperature

Stations

Nearby Weather Stations

Station Location Temp. Windchill Dew Point Humidity Wind Precip. Elev Updated Type
                   

Watches & Warnings

There are currently no watches in effect.